createdAt,value
2023-05-06T00:01:02.921Z,7.25
2023-05-06T00:03:06.296Z,8.17
2023-05-06T00:05:09.850Z,7.17
2023-05-06T00:07:13.002Z,7.05
2023-05-06T00:09:16.102Z,6.87
2023-05-06T00:11:18.998Z,5.47
2023-05-06T00:13:23.307Z,4.73
2023-05-06T00:15:26.739Z,5.13
2023-05-06T00:17:29.629Z,4.80
2023-05-06T00:19:32.590Z,4.30
2023-05-06T00:21:35.400Z,4.40
2023-05-06T00:23:38.268Z,5.87
2023-05-06T00:25:41.181Z,5.63
2023-05-06T00:27:44.002Z,5.63
2023-05-06T00:29:48.163Z,4.90
2023-05-06T00:31:51.102Z,6.47
2023-05-06T00:33:53.997Z,4.27
2023-05-06T00:35:56.794Z,5.10
2023-05-06T00:38:08.605Z,5.70
2023-05-06T00:40:12.452Z,3.87
2023-05-06T00:42:15.230Z,4.77
2023-05-06T00:44:17.995Z,4.50
2023-05-06T00:46:22.268Z,4.10
2023-05-06T00:48:25.208Z,4.20
2023-05-06T00:50:29.696Z,6.50
2023-05-06T00:52:32.796Z,3.87
2023-05-06T00:54:36.209Z,4.23
2023-05-06T00:56:39.390Z,5.03
2023-05-06T00:58:42.302Z,5.97
2023-05-06T01:00:45.195Z,3.97
2023-05-06T01:02:49.931Z,5.73
2023-05-06T01:04:55.389Z,4.43
2023-05-06T01:07:06.342Z,3.70
2023-05-06T01:09:21.677Z,4.17
2023-05-06T01:11:35.256Z,5.43
2023-05-06T01:13:46.290Z,4.20
2023-05-06T01:15:53.821Z,4.00
2023-05-06T01:18:00.029Z,4.83
2023-05-06T01:20:10.636Z,4.47
2023-05-06T01:22:14.664Z,4.53
2023-05-06T01:24:18.977Z,4.07
2023-05-06T01:26:22.241Z,5.57
2023-05-06T01:28:25.073Z,7.43
2023-05-06T01:30:36.996Z,5.63
2023-05-06T01:32:47.731Z,7.87
2023-05-06T01:34:57.653Z,9.07
2023-05-06T01:37:10.032Z,5.20
2023-05-06T01:39:19.514Z,6.07
2023-05-06T01:41:23.870Z,4.97
2023-05-06T01:43:30.514Z,6.37
2023-05-06T01:45:36.653Z,4.40
2023-05-06T01:47:41.772Z,6.50
2023-05-06T01:49:45.047Z,4.97
2023-05-06T01:51:51.274Z,3.93
2023-05-06T01:53:55.907Z,4.67
2023-05-06T01:56:00.250Z,5.07
2023-05-06T01:58:03.175Z,4.33
2023-05-06T02:00:07.452Z,4.50
2023-05-06T02:02:10.423Z,4.10
2023-05-06T02:04:13.418Z,4.00
2023-05-06T02:06:16.386Z,4.20
2023-05-06T02:08:19.290Z,3.57
2023-05-06T02:10:22.148Z,4.53
2023-05-06T02:12:26.565Z,4.07
2023-05-06T02:14:29.569Z,4.20
2023-05-06T02:16:32.786Z,3.73
2023-05-06T02:18:36.133Z,4.60
2023-05-06T02:20:39.113Z,4.10
2023-05-06T02:22:42.077Z,5.60
2023-05-06T02:24:44.950Z,4.80
2023-05-06T02:26:47.782Z,3.80
2023-05-06T02:28:52.130Z,4.07
2023-05-06T02:30:56.994Z,4.37
2023-05-06T02:32:59.960Z,4.00
2023-05-06T02:35:03.052Z,4.33
2023-05-06T02:37:06.100Z,5.60
2023-05-06T02:39:08.912Z,4.30
2023-05-06T02:41:11.796Z,4.83
2023-05-06T02:43:14.810Z,4.20
2023-05-06T02:45:19.379Z,5.47
2023-05-06T02:47:25.058Z,3.80
2023-05-06T02:49:28.324Z,6.47
2023-05-06T02:51:31.249Z,4.20
2023-05-06T02:53:34.235Z,4.17
2023-05-06T02:55:37.128Z,4.50
2023-05-06T02:57:40.101Z,5.07
2023-05-06T02:59:42.998Z,4.97
2023-05-06T03:01:47.163Z,4.00
2023-05-06T03:03:50.663Z,4.20
2023-05-06T03:05:53.722Z,9.00
2023-05-06T03:07:56.720Z,4.13
2023-05-06T03:09:59.839Z,4.17
2023-05-06T03:12:03.048Z,5.17
2023-05-06T03:14:05.937Z,4.30
2023-05-06T03:16:14.087Z,5.43
2023-05-06T03:18:18.279Z,5.47
2023-05-06T03:20:21.953Z,5.47
2023-05-06T03:22:24.780Z,5.53
2023-05-06T03:24:27.582Z,4.77
2023-05-06T03:26:30.506Z,4.40
2023-05-06T03:28:33.428Z,5.33
2023-05-06T03:30:36.221Z,4.00
2023-05-06T03:32:39.530Z,4.23
2023-05-06T03:34:43.731Z,5.20
2023-05-06T03:36:46.998Z,4.00
2023-05-06T03:38:49.948Z,4.67
2023-05-06T03:40:53.807Z,5.10
2023-05-06T03:42:56.787Z,5.70
2023-05-06T03:44:59.828Z,5.00
2023-05-06T03:47:02.741Z,4.47
2023-05-06T03:49:05.847Z,4.40
2023-05-06T03:51:10.285Z,5.20
2023-05-06T03:53:13.321Z,4.00
2023-05-06T03:55:16.471Z,5.27
2023-05-06T03:57:19.373Z,3.67
2023-05-06T03:59:22.402Z,3.97
2023-05-06T04:01:25.251Z,5.33
2023-05-06T04:03:28.344Z,4.43
2023-05-06T04:05:31.338Z,4.63
2023-05-06T04:07:35.632Z,5.03
2023-05-06T04:09:38.564Z,5.27
2023-05-06T04:11:43.649Z,4.70
2023-05-06T04:13:46.927Z,5.97
2023-05-06T04:15:50.607Z,5.33
2023-05-06T04:17:53.496Z,4.90
2023-05-06T04:19:57.647Z,6.27
2023-05-06T04:22:00.716Z,7.20
2023-05-06T04:24:05.396Z,6.10
2023-05-06T04:26:14.884Z,4.40
2023-05-06T04:28:19.352Z,8.87
2023-05-06T04:30:22.553Z,5.03
2023-05-06T04:32:26.035Z,4.63
2023-05-06T04:34:28.932Z,5.10
2023-05-06T04:36:32.002Z,5.40
2023-05-06T04:38:35.747Z,5.97
2023-05-06T04:40:41.944Z,5.00
2023-05-06T04:42:45.013Z,5.60
2023-05-06T04:44:48.721Z,5.33
2023-05-06T04:46:51.489Z,6.23
2023-05-06T04:48:54.262Z,4.90
2023-05-06T04:50:57.229Z,4.90
2023-05-06T04:53:00.062Z,4.70
2023-05-06T04:55:03.197Z,6.07
2023-05-06T04:57:07.538Z,4.90
2023-05-06T04:59:10.454Z,5.20
2023-05-06T05:01:13.389Z,8.10
2023-05-06T05:03:16.572Z,8.57
2023-05-06T05:05:19.951Z,5.53
2023-05-06T05:07:22.713Z,5.40
2023-05-06T05:09:25.750Z,5.30
2023-05-06T05:11:28.543Z,6.70
2023-05-06T05:13:32.798Z,5.13
2023-05-06T05:15:35.658Z,6.63
2023-05-06T05:17:38.790Z,5.27
2023-05-06T05:19:41.971Z,5.07
2023-05-06T05:21:44.772Z,5.67
2023-05-06T05:23:47.556Z,4.73
2023-05-06T05:25:50.335Z,5.23
2023-05-06T05:27:53.122Z,9.13
2023-05-06T05:29:57.269Z,4.77
2023-05-06T05:32:00.533Z,4.67
2023-05-06T05:34:03.484Z,5.83
2023-05-06T05:36:06.671Z,5.30
2023-05-06T05:38:12.232Z,5.10
2023-05-06T05:40:15.582Z,6.13
2023-05-06T05:42:18.356Z,4.30
2023-05-06T05:44:21.374Z,3.93
2023-05-06T05:46:25.651Z,5.83
2023-05-06T05:48:28.692Z,4.30
2023-05-06T05:50:31.518Z,3.80
2023-05-06T05:52:36.749Z,4.30
2023-05-06T05:54:39.628Z,3.87
2023-05-06T05:56:42.450Z,4.27
2023-05-06T05:58:47.211Z,5.97
2023-05-06T06:00:51.965Z,4.65
2023-05-06T06:02:56.204Z,4.40
2023-05-06T06:04:59.156Z,6.57
2023-05-06T06:07:02.575Z,5.20
2023-05-06T06:09:05.477Z,4.07
2023-05-06T06:11:08.385Z,4.82
2023-05-06T06:13:11.301Z,4.00
2023-05-06T06:15:14.067Z,4.25
2023-05-06T06:17:17.300Z,5.95
2023-05-06T06:19:21.509Z,3.58
2023-05-06T06:21:24.346Z,4.40
2023-05-06T06:23:29.876Z,4.75
2023-05-06T06:25:32.903Z,4.80
2023-05-06T06:27:38.847Z,4.50
2023-05-06T06:29:41.688Z,4.75
2023-05-06T06:31:44.511Z,4.80
2023-05-06T06:33:47.378Z,4.82
2023-05-06T06:35:51.497Z,5.28
2023-05-06T06:37:54.418Z,5.00
2023-05-06T06:39:57.252Z,5.30
2023-05-06T06:42:00.267Z,5.22
2023-05-06T06:44:03.184Z,4.72
2023-05-06T06:46:06.024Z,5.05
2023-05-06T06:48:09.056Z,5.00
2023-05-06T06:50:12.601Z,4.78
2023-05-06T06:52:16.967Z,4.25
2023-05-06T06:54:19.830Z,4.22
2023-05-06T06:56:23.096Z,4.63
2023-05-06T06:58:27.923Z,4.53
2023-05-06T07:00:30.849Z,3.47
2023-05-06T07:02:33.713Z,4.10
2023-05-06T07:04:37.052Z,5.30
2023-05-06T07:06:39.941Z,4.03
2023-05-06T07:08:44.315Z,2.85
2023-05-06T07:10:47.062Z,3.53
2023-05-06T07:12:49.805Z,4.13
2023-05-06T07:14:53.846Z,4.82
2023-05-06T07:16:57.076Z,4.80
2023-05-06T07:19:00.894Z,5.68
2023-05-06T07:21:04.245Z,4.88
2023-05-06T07:23:07.260Z,7.25
2023-05-06T07:25:11.733Z,5.18
2023-05-06T07:27:14.874Z,5.03
2023-05-06T07:29:17.967Z,5.80
2023-05-06T07:31:21.600Z,5.38
2023-05-06T07:33:24.386Z,6.00
2023-05-06T07:35:27.429Z,5.25
2023-05-06T07:37:30.576Z,6.10
2023-05-06T07:39:33.418Z,8.32
2023-05-06T07:41:38.026Z,9.70
2023-05-06T07:43:41.110Z,6.90
2023-05-06T07:45:44.008Z,8.00
2023-05-06T07:47:47.192Z,7.63
2023-05-06T07:49:54.314Z,6.80
2023-05-06T07:51:57.341Z,6.88
2023-05-06T07:54:03.566Z,6.13
2023-05-06T07:56:09.340Z,5.88
2023-05-06T07:58:14.841Z,6.57
2023-05-06T08:00:18.407Z,6.13
2023-05-06T08:02:21.803Z,7.32
2023-05-06T08:04:33.537Z,6.10
2023-05-06T08:06:42.039Z,5.53
2023-05-06T08:08:46.420Z,6.30
2023-05-06T08:10:50.450Z,5.75
2023-05-06T08:13:02.366Z,6.05
2023-05-06T08:15:08.173Z,5.57
2023-05-06T08:17:11.260Z,7.05
2023-05-06T08:19:15.188Z,5.50
2023-05-06T08:21:18.344Z,6.07
2023-05-06T08:23:34.549Z,5.63
2023-05-06T08:25:40.377Z,5.60
2023-05-06T08:27:46.304Z,5.65
2023-05-06T08:29:49.143Z,5.57
2023-05-06T08:31:59.674Z,5.45
2023-05-06T08:34:10.272Z,6.88
2023-05-06T08:36:13.113Z,5.30
2023-05-06T08:38:33.455Z,5.60
2023-05-06T08:40:43.522Z,5.95
2023-05-06T08:43:02.472Z,5.43
2023-05-06T08:45:06.462Z,6.20
2023-05-06T08:47:13.670Z,5.75
2023-05-06T08:49:19.360Z,5.60
2023-05-06T08:51:35.488Z,5.90
2023-05-06T08:53:42.289Z,6.55
2023-05-06T08:55:46.371Z,5.97
2023-05-06T08:57:51.813Z,5.38
2023-05-06T09:00:00.651Z,5.50
2023-05-06T09:02:04.315Z,5.35
2023-05-06T09:04:09.568Z,5.43
2023-05-06T09:06:17.983Z,4.57
2023-05-06T09:08:21.006Z,4.50
2023-05-06T09:10:27.659Z,5.18
2023-05-06T09:13:00.420Z,5.30
2023-05-06T09:15:09.155Z,4.20
2023-05-06T09:17:24.109Z,4.72
2023-05-06T09:19:52.936Z,4.30
2023-05-06T09:22:01.947Z,5.38
2023-05-06T09:24:06.358Z,4.03
2023-05-06T09:26:12.604Z,3.90
2023-05-06T09:28:17.443Z,5.25
2023-05-06T09:30:20.458Z,4.28
2023-05-06T09:32:27.248Z,3.50
2023-05-06T09:34:31.547Z,4.03
2023-05-06T09:36:36.373Z,4.30
2023-05-06T09:38:39.149Z,5.53
2023-05-06T09:40:48.052Z,4.63
2023-05-06T09:42:51.554Z,4.20
2023-05-06T09:44:59.871Z,3.63
2023-05-06T09:47:07.123Z,3.55
2023-05-06T09:49:10.206Z,3.40
2023-05-06T09:51:20.343Z,3.63
2023-05-06T09:53:29.184Z,4.25
2023-05-06T09:55:46.163Z,3.97
2023-05-06T09:58:08.465Z,3.95
2023-05-06T10:00:17.415Z,4.55
2023-05-06T10:02:26.254Z,3.30
2023-05-06T10:04:38.989Z,3.63
2023-05-06T10:06:54.358Z,4.35
2023-05-06T10:08:58.963Z,3.10
2023-05-06T10:11:04.057Z,3.47
2023-05-06T10:13:06.932Z,3.88
2023-05-06T10:15:11.092Z,4.07
2023-05-06T10:17:14.863Z,2.70
2023-05-06T10:19:24.031Z,5.28
2023-05-06T10:21:32.228Z,3.55
2023-05-06T10:23:44.061Z,4.03
2023-05-06T10:25:49.209Z,3.33
2023-05-06T10:27:53.985Z,2.63
2023-05-06T10:30:02.497Z,2.88
2023-05-06T10:32:10.816Z,2.92
2023-05-06T10:34:18.426Z,4.35
2023-05-06T10:36:23.540Z,2.72
2023-05-06T10:38:31.244Z,3.65
2023-05-06T10:40:36.451Z,2.50
2023-05-06T10:42:39.457Z,3.28
2023-05-06T10:44:58.395Z,3.15
2023-05-06T10:47:03.271Z,3.05
2023-05-06T10:49:20.343Z,2.42
2023-05-06T10:51:24.893Z,3.17
2023-05-06T10:54:03.110Z,3.72
2023-05-06T10:56:09.936Z,3.40
2023-05-06T10:58:17.207Z,4.45
2023-05-06T11:00:20.167Z,2.38
2023-05-06T11:02:24.002Z,2.88
2023-05-06T11:04:26.988Z,3.03
2023-05-06T11:06:34.438Z,2.55
2023-05-06T11:08:37.628Z,3.17
2023-05-06T11:10:40.651Z,3.20
2023-05-06T11:12:50.575Z,3.95
2023-05-06T11:14:53.343Z,3.15
2023-05-06T11:16:57.806Z,3.38
2023-05-06T11:19:00.928Z,3.95
2023-05-06T11:21:40.756Z,3.22
2023-05-06T11:24:12.327Z,4.50
2023-05-06T11:26:15.545Z,3.10
2023-05-06T11:28:19.692Z,4.18
2023-05-06T11:30:22.732Z,3.67
2023-05-06T11:32:37.498Z,5.40
2023-05-06T11:34:45.801Z,3.03
2023-05-06T11:37:02.067Z,3.00
2023-05-06T11:39:08.195Z,4.45
2023-05-06T11:41:17.362Z,3.60
2023-05-06T11:43:33.117Z,4.13
2023-05-06T11:45:49.819Z,3.63
2023-05-06T11:48:02.802Z,2.90
2023-05-06T11:50:18.963Z,3.25
2023-05-06T11:52:24.961Z,2.80
2023-05-06T11:54:30.221Z,3.70
2023-05-06T11:57:01.687Z,2.60
2023-05-06T11:59:48.804Z,2.85
2023-05-06T12:01:52.214Z,2.78
2023-05-06T12:04:01.220Z,3.55
2023-05-06T12:06:16.868Z,2.58
2023-05-06T12:08:28.044Z,2.63
2023-05-06T12:10:41.036Z,2.90
2023-05-06T12:12:49.984Z,4.10
2023-05-06T12:14:54.876Z,3.20
2023-05-06T12:16:58.213Z,3.17
2023-05-06T12:19:01.501Z,2.60
2023-05-06T12:21:04.608Z,2.58
2023-05-06T12:23:07.904Z,2.00
2023-05-06T12:25:15.310Z,3.00
2023-05-06T12:27:33.175Z,2.45
2023-05-06T12:29:36.257Z,2.92
2023-05-06T12:31:40.569Z,2.45
2023-05-06T12:33:48.903Z,3.80
2023-05-06T12:35:52.750Z,2.67
2023-05-06T12:37:55.961Z,5.10
2023-05-06T12:39:59.667Z,2.97
2023-05-06T12:42:02.717Z,2.00
2023-05-06T12:44:33.368Z,2.00
2023-05-06T12:46:36.169Z,2.10
2023-05-06T12:48:40.547Z,3.03
2023-05-06T12:50:44.639Z,2.80
2023-05-06T12:52:47.623Z,2.10
2023-05-06T12:54:51.731Z,3.45
2023-05-06T12:56:54.539Z,3.35
2023-05-06T12:58:58.935Z,2.28
2023-05-06T13:01:01.956Z,3.60
2023-05-06T13:03:05.118Z,1.48
2023-05-06T13:05:10.262Z,2.35
2023-05-06T13:07:13.530Z,2.17
2023-05-06T13:09:16.711Z,1.60
2023-05-06T13:11:19.480Z,1.60
2023-05-06T13:13:22.836Z,1.20
2023-05-06T13:15:26.910Z,1.27
2023-05-06T13:17:29.892Z,1.67
2023-05-06T13:19:33.594Z,1.50
2023-05-06T13:21:38.861Z,2.78
2023-05-06T13:23:46.756Z,1.83
2023-05-06T13:26:03.334Z,1.83
2023-05-06T13:28:07.560Z,1.70
2023-05-06T13:30:11.155Z,2.28
2023-05-06T13:32:14.241Z,1.83
2023-05-06T13:34:17.229Z,2.25
2023-05-06T13:36:20.117Z,1.30
2023-05-06T13:38:24.430Z,2.88
2023-05-06T13:40:27.360Z,1.35
2023-05-06T13:42:30.167Z,1.77
2023-05-06T13:44:33.027Z,2.72
2023-05-06T13:46:35.997Z,1.77
2023-05-06T13:48:39.042Z,1.48
2023-05-06T13:50:42.532Z,2.08
2023-05-06T13:52:45.431Z,2.45
2023-05-06T13:54:49.576Z,2.03
2023-05-06T13:56:52.453Z,1.30
2023-05-06T13:58:55.361Z,1.65
2023-05-06T14:00:58.291Z,2.38
2023-05-06T14:03:01.657Z,2.47
2023-05-06T14:05:05.801Z,2.03
2023-05-06T14:07:08.786Z,2.15
2023-05-06T14:09:13.004Z,2.08
2023-05-06T14:11:17.411Z,1.17
2023-05-06T14:13:20.445Z,1.20
2023-05-06T14:15:24.486Z,0.98
2023-05-06T14:17:27.861Z,1.15
2023-05-06T14:19:30.915Z,1.50
2023-05-06T14:21:34.948Z,1.48
2023-05-06T14:23:37.874Z,1.73
2023-05-06T14:25:40.729Z,1.40
2023-05-06T14:27:45.420Z,2.78
2023-05-06T14:29:48.309Z,1.77
2023-05-06T14:31:53.126Z,1.98
2023-05-06T14:33:56.169Z,1.48
2023-05-06T14:36:00.013Z,1.48
2023-05-06T14:38:03.132Z,1.88
2023-05-06T14:40:07.669Z,1.50
2023-05-06T14:42:10.873Z,1.33
2023-05-06T14:44:15.220Z,4.00
2023-05-06T14:46:18.266Z,1.60
2023-05-06T14:48:21.055Z,1.77
2023-05-06T14:50:23.975Z,2.42
2023-05-06T14:52:27.028Z,1.40
2023-05-06T14:54:30.159Z,3.05
2023-05-06T14:56:32.951Z,1.83
2023-05-06T14:58:35.758Z,2.78
2023-05-06T15:00:39.915Z,2.25
2023-05-06T15:02:42.786Z,2.28
2023-05-06T15:04:45.861Z,2.20
2023-05-06T15:06:48.652Z,2.15
2023-05-06T15:08:51.401Z,1.77
2023-05-06T15:10:54.831Z,2.28
2023-05-06T15:12:57.853Z,1.88
2023-05-06T15:15:00.679Z,3.53
2023-05-06T15:17:04.919Z,1.20
2023-05-06T15:19:07.689Z,3.42
2023-05-06T15:21:11.243Z,1.98
2023-05-06T15:23:14.134Z,3.50
2023-05-06T15:25:30.393Z,4.93
2023-05-06T15:27:37.606Z,3.00
2023-05-06T15:29:40.470Z,5.22
2023-05-06T15:31:45.427Z,3.95
2023-05-06T15:33:49.592Z,1.98
2023-05-06T15:35:55.110Z,3.92
2023-05-06T15:37:58.825Z,1.27
2023-05-06T15:40:05.207Z,1.30
2023-05-06T15:42:08.464Z,2.53
2023-05-06T15:44:12.424Z,2.30
2023-05-06T15:46:15.190Z,1.63
2023-05-06T15:48:19.418Z,1.80
2023-05-06T15:50:32.864Z,2.80
2023-05-06T15:52:36.490Z,1.27
2023-05-06T15:54:40.913Z,3.53
2023-05-06T15:56:45.024Z,1.90
2023-05-06T15:58:47.813Z,1.95
2023-05-06T16:00:50.573Z,1.30
2023-05-06T16:02:53.482Z,1.27
2023-05-06T16:04:56.565Z,2.17
2023-05-06T16:07:01.099Z,3.15
2023-05-06T16:09:08.403Z,2.15
2023-05-06T16:11:11.115Z,1.33
2023-05-06T16:13:13.993Z,1.30
2023-05-06T16:15:17.005Z,1.38
2023-05-06T16:17:20.160Z,2.35
2023-05-06T16:19:23.065Z,1.73
2023-05-06T16:21:27.000Z,2.47
2023-05-06T16:23:31.213Z,1.35
2023-05-06T16:25:34.422Z,1.27
2023-05-06T16:27:37.222Z,1.50
2023-05-06T16:29:40.359Z,1.98
2023-05-06T16:31:43.185Z,2.53
2023-05-06T16:33:46.101Z,1.30
2023-05-06T16:35:48.992Z,1.63
2023-05-06T16:37:51.760Z,2.92
2023-05-06T16:39:56.000Z,3.22
2023-05-06T16:41:58.748Z,2.95
2023-05-06T16:44:01.528Z,1.70
2023-05-06T16:46:04.355Z,1.70
2023-05-06T16:48:07.323Z,1.85
2023-05-06T16:50:11.014Z,3.10
2023-05-06T16:52:13.935Z,1.92
2023-05-06T16:54:16.811Z,1.95
2023-05-06T16:56:21.552Z,1.95
2023-05-06T16:58:25.145Z,2.58
2023-05-06T17:00:28.297Z,2.72
2023-05-06T17:02:31.172Z,1.77
2023-05-06T17:04:34.245Z,3.42
2023-05-06T17:06:37.159Z,1.88
2023-05-06T17:08:39.907Z,1.75
2023-05-06T17:10:43.282Z,1.88
2023-05-06T17:12:47.443Z,1.25
2023-05-06T17:14:54.372Z,2.08
2023-05-06T17:17:00.128Z,2.20
2023-05-06T17:19:03.091Z,2.50
2023-05-06T17:21:08.934Z,1.85
2023-05-06T17:23:13.653Z,1.25
2023-05-06T17:25:16.581Z,1.50
2023-05-06T17:27:20.793Z,1.50
2023-05-06T17:29:30.097Z,1.88
2023-05-06T17:31:33.062Z,3.17
2023-05-06T17:33:36.610Z,2.42
2023-05-06T17:35:39.697Z,1.52
2023-05-06T17:37:42.727Z,1.50
2023-05-06T17:39:46.212Z,3.83
2023-05-06T17:42:02.597Z,2.65
2023-05-06T17:44:10.271Z,1.33
2023-05-06T17:46:14.542Z,2.40
2023-05-06T17:48:20.357Z,1.58
2023-05-06T17:50:31.311Z,1.08
2023-05-06T17:52:34.766Z,2.97
2023-05-06T17:54:41.437Z,2.78
2023-05-06T17:56:50.569Z,1.80
2023-05-06T17:58:54.328Z,1.67
2023-05-06T18:00:57.297Z,1.90
2023-05-06T18:03:01.541Z,4.40
2023-05-06T18:05:04.680Z,3.17
2023-05-06T18:07:07.386Z,4.15
2023-05-06T18:09:10.610Z,2.95
2023-05-06T18:11:13.717Z,3.03
2023-05-06T18:13:16.789Z,2.95
2023-05-06T18:15:19.817Z,2.22
2023-05-06T18:17:22.608Z,3.17
2023-05-06T18:19:27.332Z,1.80
2023-05-06T18:21:30.388Z,1.25
2023-05-06T18:23:33.351Z,2.65
2023-05-06T18:25:36.034Z,1.70
2023-05-06T18:27:38.839Z,3.72
2023-05-06T18:29:41.971Z,2.40
2023-05-06T18:31:44.777Z,2.22
2023-05-06T18:33:47.563Z,1.27
2023-05-06T18:35:52.084Z,1.83
2023-05-06T18:37:57.825Z,1.30
2023-05-06T18:40:11.037Z,1.35
2023-05-06T18:42:13.972Z,1.80
2023-05-06T18:44:25.203Z,1.60
2023-05-06T18:46:28.287Z,2.05
2023-05-06T18:48:31.935Z,2.33
2023-05-06T18:50:34.708Z,3.03
2023-05-06T18:52:41.387Z,2.10
2023-05-06T18:54:44.595Z,3.08
2023-05-06T18:56:48.210Z,3.00
2023-05-06T18:58:51.111Z,1.92
2023-05-06T19:00:55.310Z,1.67
2023-05-06T19:02:58.638Z,2.55
2023-05-06T19:05:01.476Z,1.30
2023-05-06T19:07:04.415Z,2.13
2023-05-06T19:09:08.992Z,2.47
2023-05-06T19:11:15.379Z,4.15
2023-05-06T19:13:18.202Z,1.70
2023-05-06T19:15:21.163Z,4.68
2023-05-06T19:17:23.991Z,1.92
2023-05-06T19:19:26.998Z,3.03
2023-05-06T19:21:29.852Z,2.15
2023-05-06T19:23:33.093Z,2.78
2023-05-06T19:25:39.163Z,2.00
2023-05-06T19:27:41.967Z,3.25
2023-05-06T19:29:44.817Z,2.13
2023-05-06T19:31:47.622Z,1.58
2023-05-06T19:33:50.701Z,1.52
2023-05-06T19:35:53.665Z,2.17
2023-05-06T19:37:57.316Z,1.58
2023-05-06T19:40:00.065Z,3.00
2023-05-06T19:42:04.259Z,2.72
2023-05-06T19:44:07.041Z,2.78
2023-05-06T19:46:10.221Z,3.00
2023-05-06T19:48:14.561Z,2.10
2023-05-06T19:50:17.344Z,2.17
2023-05-06T19:52:20.229Z,2.25
2023-05-06T19:54:22.999Z,2.28
2023-05-06T19:56:25.899Z,1.75
2023-05-06T19:58:30.808Z,1.90
2023-05-06T20:00:33.689Z,2.60
2023-05-06T20:02:38.908Z,2.70
2023-05-06T20:04:41.789Z,2.38
2023-05-06T20:06:44.616Z,2.38
2023-05-06T20:08:47.575Z,2.00
2023-05-06T20:10:50.551Z,3.05
2023-05-06T20:12:54.830Z,2.20
2023-05-06T20:15:00.677Z,4.05
2023-05-06T20:17:03.581Z,1.90
2023-05-06T20:19:07.693Z,2.78
2023-05-06T20:21:10.424Z,3.33
2023-05-06T20:23:13.172Z,5.15
2023-05-06T20:25:17.394Z,2.55
2023-05-06T20:27:21.153Z,2.63
2023-05-06T20:29:23.964Z,5.07
2023-05-06T20:31:28.625Z,2.55
2023-05-06T20:33:31.458Z,4.10
2023-05-06T20:35:37.872Z,2.80
2023-05-06T20:37:41.240Z,2.42
2023-05-06T20:39:45.209Z,2.40
2023-05-06T20:41:48.012Z,2.80
2023-05-06T20:43:53.173Z,4.80
2023-05-06T20:45:56.240Z,2.97
2023-05-06T20:48:00.354Z,3.03
2023-05-06T20:50:03.222Z,3.47
2023-05-06T20:52:07.794Z,3.35
2023-05-06T20:54:11.035Z,3.72
2023-05-06T20:56:20.426Z,4.40
2023-05-06T20:58:23.425Z,3.83
2023-05-06T21:00:26.330Z,4.05
2023-05-06T21:02:31.516Z,2.22
2023-05-06T21:04:39.126Z,2.67
2023-05-06T21:06:42.034Z,2.50
2023-05-06T21:08:46.143Z,5.00
2023-05-06T21:10:49.008Z,3.15
2023-05-06T21:12:52.045Z,2.50
2023-05-06T21:14:55.185Z,2.88
2023-05-06T21:16:58.004Z,3.67
2023-05-06T21:19:01.150Z,2.92
2023-05-06T21:21:05.776Z,3.38
2023-05-06T21:23:08.838Z,2.75
2023-05-06T21:25:13.050Z,3.33
2023-05-06T21:27:16.453Z,2.55
2023-05-06T21:29:22.347Z,3.22
2023-05-06T21:31:26.432Z,4.85
2023-05-06T21:33:29.366Z,4.20
2023-05-06T21:35:32.190Z,2.40
2023-05-06T21:37:36.525Z,3.17
2023-05-06T21:39:39.498Z,2.67
2023-05-06T21:41:42.271Z,4.07
2023-05-06T21:43:44.992Z,2.67
2023-05-06T21:45:47.919Z,2.60
2023-05-06T21:47:50.849Z,3.47
2023-05-06T21:49:53.647Z,3.30
2023-05-06T21:51:56.584Z,2.80
2023-05-06T21:54:00.975Z,3.00
2023-05-06T21:56:04.003Z,2.97
2023-05-06T21:58:08.396Z,3.10
2023-05-06T22:00:12.687Z,4.05
2023-05-06T22:02:15.955Z,4.85
2023-05-06T22:04:19.941Z,3.40
2023-05-06T22:06:23.273Z,3.72
2023-05-06T22:08:28.860Z,3.08
2023-05-06T22:10:33.048Z,3.90
2023-05-06T22:12:38.008Z,4.07
2023-05-06T22:14:41.821Z,4.60
2023-05-06T22:16:45.659Z,3.38
2023-05-06T22:18:51.935Z,4.20
2023-05-06T22:20:57.592Z,2.58
2023-05-06T22:23:00.756Z,2.72
2023-05-06T22:25:03.638Z,4.70
2023-05-06T22:27:07.883Z,3.65
2023-05-06T22:29:11.109Z,3.05
2023-05-06T22:31:16.979Z,3.20
2023-05-06T22:33:19.857Z,4.13
2023-05-06T22:35:22.594Z,4.88
2023-05-06T22:37:25.402Z,2.63
2023-05-06T22:39:28.206Z,3.42
2023-05-06T22:41:31.360Z,4.10
2023-05-06T22:43:35.581Z,2.05
2023-05-06T22:45:38.426Z,3.90
2023-05-06T22:47:41.366Z,3.58
2023-05-06T22:49:44.279Z,2.90
2023-05-06T22:51:47.176Z,2.53
2023-05-06T22:53:49.904Z,2.90
2023-05-06T22:55:52.678Z,2.88
2023-05-06T22:57:55.769Z,3.20
2023-05-06T22:59:59.886Z,3.90
2023-05-06T23:02:03.075Z,3.38
2023-05-06T23:04:06.228Z,2.65
2023-05-06T23:06:09.070Z,2.42
2023-05-06T23:08:11.947Z,2.83
2023-05-06T23:10:14.695Z,3.45
2023-05-06T23:12:17.479Z,5.13
2023-05-06T23:14:20.360Z,3.40
2023-05-06T23:16:24.645Z,2.90
2023-05-06T23:18:27.457Z,6.43
2023-05-06T23:20:30.260Z,3.83
2023-05-06T23:22:33.013Z,3.80
2023-05-06T23:24:36.363Z,2.83
2023-05-06T23:26:39.251Z,4.20
2023-05-06T23:28:42.069Z,3.83
2023-05-06T23:30:44.857Z,2.88
2023-05-06T23:32:49.247Z,3.83
2023-05-06T23:34:52.416Z,2.78
2023-05-06T23:36:56.332Z,4.18
2023-05-06T23:38:59.121Z,5.18
2023-05-06T23:41:01.836Z,2.60
2023-05-06T23:43:06.928Z,2.72
2023-05-06T23:45:11.657Z,3.30
2023-05-06T23:47:14.610Z,3.97
2023-05-06T23:49:18.674Z,2.90
2023-05-06T23:51:21.574Z,4.55
2023-05-06T23:53:24.772Z,3.17
2023-05-06T23:55:27.921Z,3.53
2023-05-06T23:57:30.799Z,2.95
2023-05-06T23:59:33.930Z,2.90
